Time;durP1;ratioP1;P1;durP2;ratioP2;P2;SDS_P1;SDS_P2;PMS_P1;PMS_P2;Temp;Humidity;BMP_temperature;BMP_pressure;BME280_temperature;BME280_humidity;BME280_pressure;Samples;Min_cycle;Max_cycle;Signal;HPM_P1;HPM_P2
2022/03/17 00:00:12;;;;;;;;;;;;;;;8.33;55.59;101772.66;1735659;81;20135;-84
2022/03/17 00:02:37;;;;;;;;;;;;;;;8.34;55.47;101776.99;1734888;82;20243;-86
2022/03/17 00:05:04;;;;;;;;;;;;;;;8.18;55.68;101778.00;1731716;82;20131;-86
2022/03/17 00:07:30;;;;;;;;;;;;;;;8.14;55.60;101780.48;1734036;81;20166;-82
2022/03/17 00:09:57;;;;;;;;;;;;;;;8.17;55.49;101771.06;1735846;82;21823;-84
2022/03/17 00:12:23;;;;;;;;;;;;;;;8.16;55.56;101778.58;1735998;82;20209;-85
2022/03/17 00:14:50;;;;;;;;;;;;;;;8.09;55.70;101779.91;1730669;82;20154;-83
2022/03/17 00:17:16;;;;;;;;;;;;;;;8.07;55.81;101780.49;1730782;81;20158;-85
2022/03/17 00:19:44;;;;;;;;;;;;;;;8.07;55.80;101777.86;1730190;82;20162;-86
2022/03/17 00:22:15;;;;;;;;;;;;;;;7.98;56.00;101781.09;1699679;82;21159;-85
2022/03/17 00:24:37;;;;;;;;;;;;;;;8.01;55.88;101784.84;1663382;84;20187;-83
2022/03/17 00:27:05;;;;;;;;;;;;;;;8.00;55.87;101786.63;1666496;84;20131;-80
2022/03/17 00:29:33;;;;;;;;;;;;;;;8.00;55.92;101785.77;1666407;84;20195;-83
2022/03/17 00:31:59;;;;;;;;;;;;;;;8.01;55.87;101788.78;1701033;83;20157;-84
2022/03/17 00:34:24;;;;;;;;;;;;;;;7.94;56.06;101794.92;1698925;83;21197;-84
2022/03/17 00:36:50;;;;;;;;;;;;;;;7.96;55.95;101798.77;1685491;83;20158;-87
2022/03/17 00:39:16;;;;;;;;;;;;;;;7.97;55.94;101793.41;1731787;81;20189;-85
2022/03/17 00:41:42;;;;;;;;;;;;;;;7.95;56.15;101799.70;1708883;82;20429;-85
2022/03/17 00:44:12;;;;;;;;;;;;;;;7.90;56.08;101792.94;1734627;82;20176;-88
2022/03/17 00:46:38;;;;;;;;;;;;;;;7.81;56.19;101790.05;1732681;82;21301;-85
2022/03/17 00:49:05;;;;;;;;;;;;;;;7.64;56.73;101797.70;1731546;82;20141;-83
2022/03/17 00:51:34;;;;;;;;;;;;;;;7.65;56.60;101803.34;1726858;81;20144;-85
2022/03/17 00:54:00;;;;;;;;;;;;;;;7.55;56.83;101795.16;1733083;81;20164;-85
2022/03/17 00:56:26;;;;;;;;;;;;;;;7.48;56.96;101797.34;1733984;82;20175;-84
2022/03/17 00:58:52;;;;;;;;;;;;;;;7.42;57.13;101795.09;1729383;81;21125;-85
2022/03/17 01:01:18;;;;;;;;;;;;;;;7.32;57.38;101796.61;1726514;82;20491;-85
2022/03/17 01:03:46;;;;;;;;;;;;;;;7.32;57.28;101800.08;1734206;82;20285;-84
2022/03/17 01:06:11;;;;;;;;;;;;;;;7.32;57.27;101796.61;1731697;81;20123;-84
2022/03/17 01:08:38;;;;;;;;;;;;;;;7.23;57.52;101799.80;1735233;82;20188;-89
2022/03/17 01:11:05;;;;;;;;;;;;;;;7.22;57.59;101798.10;1725225;82;21883;-84
2022/03/17 01:13:31;;;;;;;;;;;;;;;7.26;57.66;101799.61;1731006;81;20163;-81
2022/03/17 01:15:56;;;;;;;;;;;;;;;7.31;57.55;101798.86;1730626;82;20221;-87
2022/03/17 01:18:22;;;;;;;;;;;;;;;7.26;57.83;101796.98;1732429;81;20237;-88
2022/03/17 01:20:50;;;;;;;;;;;;;;;7.26;57.72;101798.30;1733984;82;20131;-88
2022/03/17 01:23:16;;;;;;;;;;;;;;;7.25;57.88;101795.29;1731280;82;22002;-89
2022/03/17 01:25:42;;;;;;;;;;;;;;;7.23;57.96;101798.49;1730219;82;20185;-84
2022/03/17 01:28:07;;;;;;;;;;;;;;;7.23;57.98;101801.95;1728847;81;20178;-81
2022/03/17 01:30:35;;;;;;;;;;;;;;;7.16;58.18;101800.17;1726823;80;20199;-82
2022/03/17 01:33:02;;;;;;;;;;;;;;;7.23;57.97;101806.37;1728058;82;20206;-87
2022/03/17 01:35:27;;;;;;;;;;;;;;;7.27;57.99;101802.59;1727499;81;21924;-83
2022/03/17 01:37:53;;;;;;;;;;;;;;;7.28;57.91;101802.98;1732628;82;20131;-87
2022/03/17 01:40:19;;;;;;;;;;;;;;;7.34;57.66;101806.55;1730950;81;20190;-87
2022/03/17 01:42:45;;;;;;;;;;;;;;;7.28;57.66;101809.08;1735293;82;20167;-85
2022/03/17 01:45:12;;;;;;;;;;;;;;;7.26;57.58;101804.88;1730736;82;20195;-87
2022/03/17 01:47:40;;;;;;;;;;;;;;;7.32;57.40;101812.38;1731743;82;20490;-88
2022/03/17 01:50:11;;;;;;;;;;;;;;;7.16;57.99;101812.00;1736126;82;20264;-87
2022/03/17 01:52:37;;;;;;;;;;;;;;;7.15;58.03;101808.98;1736079;82;20122;-84
2022/03/17 01:55:03;;;;;;;;;;;;;;;6.78;59.24;101813.80;1730915;81;20644;-88
2022/03/17 01:57:29;;;;;;;;;;;;;;;6.71;59.36;101811.18;1730863;81;20186;-85
2022/03/17 01:59:54;;;;;;;;;;;;;;;6.53;60.09;101814.88;1729222;82;21193;-87
2022/03/17 02:02:20;;;;;;;;;;;;;;;6.51;60.18;101823.28;1732077;82;20163;-88
2022/03/17 02:04:47;;;;;;;;;;;;;;;6.43;60.42;101819.34;1736856;82;20154;-81
2022/03/17 02:07:14;;;;;;;;;;;;;;;6.28;61.05;101821.52;1734884;82;20155;-83
2022/03/17 02:09:40;;;;;;;;;;;;;;;6.17;61.41;101826.06;1731287;81;20128;-84
2022/03/17 02:15:01;;;;;;;;;;;;;;;5.89;62.42;101824.10;1733525;82;20147;-86
2022/03/17 02:17:24;;;;;;;;;;;;;;;5.92;62.43;101819.53;1727948;82;20150;-86
2022/03/17 02:19:50;;;;;;;;;;;;;;;6.14;61.76;101830.61;1734977;82;20169;-88
2022/03/17 02:22:17;;;;;;;;;;;;;;;6.03;62.02;101829.90;1743415;80;20173;-85
2022/03/17 02:27:28;;;;;;;;;;;;;;;6.01;61.95;101831.33;1747680;80;20107;-80
2022/03/17 02:29:54;;;;;;;;;;;;;;;6.06;61.96;101837.16;1748589;80;20154;-89
2022/03/17 02:32:20;;;;;;;;;;;;;;;5.95;62.36;101832.95;1755778;80;20148;-90
2022/03/17 02:34:46;;;;;;;;;;;;;;;6.00;62.19;101837.49;1756492;80;20185;-81
2022/03/17 02:37:15;;;;;;;;;;;;;;;6.02;62.11;101838.72;1752505;80;21107;-81
2022/03/17 02:39:42;;;;;;;;;;;;;;;6.02;62.01;101843.48;1761933;80;20124;-83
2022/03/17 02:42:10;;;;;;;;;;;;;;;5.79;63.03;101849.12;1757128;80;20174;-83
2022/03/17 02:44:37;;;;;;;;;;;;;;;5.57;63.80;101856.81;1754873;80;20209;-87
2022/03/17 02:47:03;;;;;;;;;;;;;;;5.64;64.05;101853.39;1752822;80;20155;-79
2022/03/17 02:49:29;;;;;;;;;;;;;;;5.69;63.84;101848.77;1754649;80;21088;-79
2022/03/17 02:51:55;;;;;;;;;;;;;;;5.86;63.33;101857.05;1750589;80;20367;-80
2022/03/17 02:54:21;;;;;;;;;;;;;;;5.84;63.36;101857.56;1752385;80;20151;-80
2022/03/17 02:56:46;;;;;;;;;;;;;;;5.87;63.31;101856.09;1749412;80;20138;-85
2022/03/17 02:59:14;;;;;;;;;;;;;;;5.69;63.77;101858.78;1754081;80;20516;-88
2022/03/17 03:01:41;;;;;;;;;;;;;;;5.79;63.49;101860.91;1760095;80;20298;-91
2022/03/17 03:04:07;;;;;;;;;;;;;;;5.66;64.01;101860.27;1753853;80;20154;-78
2022/03/17 03:06:32;;;;;;;;;;;;;;;5.62;63.98;101861.81;1753488;80;20157;-81
2022/03/17 03:08:59;;;;;;;;;;;;;;;5.65;63.96;101867.73;1761303;80;20128;-86
2022/03/17 03:11:27;;;;;;;;;;;;;;;5.53;64.28;101872.31;1752914;80;20638;-82
2022/03/17 03:13:53;;;;;;;;;;;;;;;5.45;64.43;101874.50;1747786;80;21090;-82
2022/03/17 03:16:18;;;;;;;;;;;;;;;5.33;64.95;101872.91;1755030;80;20249;-88
2022/03/17 03:18:44;;;;;;;;;;;;;;;5.31;64.87;101876.05;1756948;80;20155;-89
2022/03/17 03:21:10;;;;;;;;;;;;;;;5.16;65.51;101880.80;1752995;80;20167;-87
2022/03/17 03:23:38;;;;;;;;;;;;;;;5.08;65.83;101873.33;1723096;82;20786;-85
2022/03/17 03:26:03;;;;;;;;;;;;;;;5.10;65.79;101886.34;1740434;81;21906;-85
2022/03/17 03:28:29;;;;;;;;;;;;;;;5.04;65.99;101886.17;1733991;80;20158;-87
2022/03/17 03:30:54;;;;;;;;;;;;;;;5.02;66.09;101887.56;1739978;80;20154;-85
2022/03/17 03:33:20;;;;;;;;;;;;;;;5.04;66.00;101883.09;1734736;80;20707;-86
2022/03/17 03:38:29;;;;;;;;;;;;;;;5.24;65.27;101893.02;1739214;81;20556;-85
2022/03/17 03:40:55;;;;;;;;;;;;;;;4.98;66.14;101897.80;1743940;80;20125;-83
2022/03/17 03:43:21;;;;;;;;;;;;;;;5.21;65.34;101901.03;1744680;81;20143;-78
2022/03/17 03:45:47;;;;;;;;;;;;;;;5.23;65.26;101908.34;1742268;80;20150;-78
2022/03/17 03:48:12;;;;;;;;;;;;;;;4.86;66.52;101906.25;1747191;81;20485;-81
2022/03/17 03:50:38;;;;;;;;;;;;;;;4.96;66.59;101907.98;1742031;81;21124;-81
2022/03/17 03:53:04;;;;;;;;;;;;;;;4.99;66.18;101912.59;1740079;81;20402;-81
2022/03/17 03:55:30;;;;;;;;;;;;;;;4.85;66.60;101918.50;1738604;80;20099;-82
2022/03/17 03:57:55;;;;;;;;;;;;;;;4.78;67.13;101916.27;1743401;81;20165;-87
2022/03/17 04:02:51;;;;;;;;;;;;;;;4.67;67.68;101924.63;1738507;80;20130;-85
2022/03/17 04:05:18;;;;;;;;;;;;;;;4.68;67.70;101921.11;1740171;81;20619;-88
2022/03/17 04:07:45;;;;;;;;;;;;;;;4.55;68.17;101926.53;1738522;80;20152;-88
2022/03/17 04:10:11;;;;;;;;;;;;;;;4.74;67.48;101930.41;1738196;80;20519;-83
2022/03/17 04:12:39;;;;;;;;;;;;;;;4.89;66.85;101929.66;1730041;81;20188;-84
2022/03/17 04:15:05;;;;;;;;;;;;;;;4.88;66.94;101933.22;1739103;81;22081;-82
2022/03/17 04:17:31;;;;;;;;;;;;;;;4.59;68.15;101932.02;1743800;81;20658;-82
2022/03/17 04:19:57;;;;;;;;;;;;;;;4.55;68.54;101944.38;1735701;81;20606;-84
2022/03/17 04:22:22;;;;;;;;;;;;;;;4.62;68.34;101940.55;1739581;80;20549;-82
2022/03/17 04:24:48;;;;;;;;;;;;;;;4.66;68.28;101943.86;1749140;80;20134;-87
2022/03/17 04:27:13;;;;;;;;;;;;;;;4.66;68.43;101946.04;1751881;80;21021;-88
2022/03/17 04:29:40;;;;;;;;;;;;;;;4.72;68.19;101949.27;1753148;80;20473;-80
2022/03/17 04:32:07;;;;;;;;;;;;;;;4.87;67.57;101951.16;1747054;80;20102;-80
2022/03/17 04:34:35;;;;;;;;;;;;;;;5.00;67.14;101948.77;1752542;80;20081;-81
2022/03/17 04:37:01;;;;;;;;;;;;;;;5.10;66.71;101953.95;1753026;80;20170;-81
2022/03/17 04:39:26;;;;;;;;;;;;;;;5.17;66.32;101951.86;1751896;80;21023;-89
2022/03/17 04:41:52;;;;;;;;;;;;;;;5.21;66.17;101956.03;1751168;80;20114;-83
2022/03/17 04:44:18;;;;;;;;;;;;;;;5.27;65.87;101953.11;1754956;80;20109;-79
2022/03/17 04:46:46;;;;;;;;;;;;;;;5.34;65.54;101959.72;1752697;80;20738;-85
2022/03/17 04:49:11;;;;;;;;;;;;;;;5.29;65.45;101958.27;1747011;81;20146;-84
2022/03/17 04:51:36;;;;;;;;;;;;;;;5.29;65.32;101961.73;1751125;80;21173;-88
2022/03/17 04:54:03;;;;;;;;;;;;;;;5.32;65.37;101972.05;1752000;80;20124;-87
2022/03/17 04:56:28;;;;;;;;;;;;;;;5.42;65.03;101972.91;1749148;80;20205;-90
2022/03/17 04:58:55;;;;;;;;;;;;;;;5.33;65.25;101981.63;1743022;80;20456;-88
2022/03/17 05:01:21;;;;;;;;;;;;;;;5.43;64.92;101975.92;1751938;80;21001;-79
2022/03/17 05:03:47;;;;;;;;;;;;;;;5.42;64.87;101986.00;1748469;80;21140;-88
2022/03/17 05:06:15;;;;;;;;;;;;;;;5.43;64.94;101982.00;1754042;80;20244;-86
2022/03/17 05:08:40;;;;;;;;;;;;;;;5.34;65.14;101995.55;1745404;80;20242;-88
2022/03/17 05:11:07;;;;;;;;;;;;;;;5.35;65.05;101994.17;1749393;80;20222;-85
2022/03/17 05:13:34;;;;;;;;;;;;;;;5.43;64.82;101991.64;1755275;80;20539;-87
2022/03/17 05:16:00;;;;;;;;;;;;;;;5.50;64.67;101993.00;1729358;80;20935;-87
2022/03/17 05:18:25;;;;;;;;;;;;;;;5.45;64.76;101994.55;1751677;80;20200;-89
2022/03/17 05:20:51;;;;;;;;;;;;;;;5.38;64.94;102002.34;1748461;80;20469;-89
2022/03/17 05:23:17;;;;;;;;;;;;;;;5.43;64.83;101996.88;1706325;81;21172;-80
2022/03/17 05:25:47;;;;;;;;;;;;;;;5.55;64.48;101993.17;1720587;82;20438;-82
2022/03/17 05:28:13;;;;;;;;;;;;;;;5.55;64.40;101996.26;1718542;80;21046;-89
2022/03/17 05:30:43;;;;;;;;;;;;;;;5.31;65.03;102000.47;1717327;82;20127;-86
2022/03/17 05:33:10;;;;;;;;;;;;;;;5.29;65.30;102002.80;1720807;82;20224;-88
2022/03/17 05:35:39;;;;;;;;;;;;;;;5.47;64.78;102001.02;1717931;81;21046;-93
2022/03/17 05:38:04;;;;;;;;;;;;;;;5.46;64.77;102003.27;1712482;82;20153;-86
2022/03/17 05:40:30;;;;;;;;;;;;;;;5.45;64.76;102010.74;1718252;82;21356;-90
2022/03/17 05:42:58;;;;;;;;;;;;;;;5.53;64.60;102013.81;1718870;82;21064;-89
2022/03/17 05:45:27;;;;;;;;;;;;;;;5.61;68.68;102012.98;1715552;82;20240;-88
2022/03/17 05:47:54;;;;;;;;;;;;;;;5.65;66.30;102011.88;1719321;80;20191;-85
2022/03/17 05:50:24;;;;;;;;;;;;;;;5.74;65.26;102016.66;1720108;82;20151;-91
2022/03/17 05:52:50;;;;;;;;;;;;;;;5.69;64.79;102017.36;1717641;82;21081;-88
2022/03/17 05:55:17;;;;;;;;;;;;;;;5.57;64.75;102026.69;1719786;82;20135;-86
2022/03/17 05:57:45;;;;;;;;;;;;;;;5.60;64.67;102024.38;1724476;81;20123;-86
2022/03/17 06:00:15;;;;;;;;;;;;;;;5.69;64.49;102025.23;1714961;82;20127;-90
2022/03/17 06:02:42;;;;;;;;;;;;;;;5.68;64.51;102026.14;1715997;81;20135;-85
2022/03/17 06:05:10;;;;;;;;;;;;;;;5.66;64.43;102035.87;1717337;82;20450;-84
2022/03/17 06:07:39;;;;;;;;;;;;;;;5.60;64.56;102033.55;1698560;82;20298;-87
2022/03/17 06:10:07;;;;;;;;;;;;;;;5.63;64.70;102035.19;1718205;81;20136;-88
2022/03/17 06:12:33;;;;;;;;;;;;;;;5.62;64.84;102030.86;1714811;82;20142;-87
2022/03/17 06:15:00;;;;;;;;;;;;;;;5.63;64.82;102035.19;1717320;82;20127;-87
2022/03/17 06:17:44;;;;;;;;;;;;;;;5.51;65.33;102041.88;1718311;82;21233;-83
2022/03/17 06:20:12;;;;;;;;;;;;;;;5.66;64.90;102035.87;1717432;82;20134;-89
2022/03/17 06:22:39;;;;;;;;;;;;;;;5.72;64.81;102038.65;1721383;80;20115;-88
2022/03/17 06:25:07;;;;;;;;;;;;;;;5.79;64.70;102044.42;1740881;80;20156;-85
2022/03/17 06:27:34;;;;;;;;;;;;;;;5.73;64.80;102037.27;1737872;81;20202;-84
2022/03/17 06:30:02;;;;;;;;;;;;;;;5.73;64.78;102043.81;1737334;80;21071;-85
2022/03/17 06:32:30;;;;;;;;;;;;;;;5.74;64.87;102049.90;1740246;80;20198;-86
2022/03/17 06:34:56;;;;;;;;;;;;;;;5.77;64.93;102048.91;1739556;80;20464;-81
2022/03/17 06:37:21;;;;;;;;;;;;;;;5.81;64.87;102043.87;1741256;81;20122;-83
2022/03/17 06:39:47;;;;;;;;;;;;;;;5.86;64.84;102047.13;1738292;80;20290;-78
2022/03/17 06:42:13;;;;;;;;;;;;;;;5.92;64.78;102053.37;1736427;80;21182;-83
2022/03/17 06:44:38;;;;;;;;;;;;;;;6.00;64.78;102055.16;1736898;80;20140;-85
2022/03/17 06:47:04;;;;;;;;;;;;;;;6.09;64.64;102061.67;1738694;80;20186;-79
2022/03/17 06:49:29;;;;;;;;;;;;;;;5.96;65.13;102057.98;1736498;80;20177;-83
2022/03/17 06:51:56;;;;;;;;;;;;;;;5.97;65.22;102065.80;1732561;81;20153;-81
2022/03/17 06:54:21;;;;;;;;;;;;;;;6.10;64.94;102065.53;1736092;81;21288;-80
2022/03/17 06:56:47;;;;;;;;;;;;;;;6.02;65.23;102067.72;1737073;80;20367;-83
2022/03/17 06:59:13;;;;;;;;;;;;;;;6.19;64.95;102069.94;1743958;81;20184;-82
2022/03/17 07:01:38;;;;;;;;;;;;;;;6.19;64.94;102070.77;1746259;81;20188;-80
2022/03/17 07:04:04;;;;;;;;;;;;;;;6.31;64.56;102074.55;1744872;81;20404;-78
2022/03/17 07:06:29;;;;;;;;;;;;;;;6.33;64.71;102072.67;1743540;78;21050;-79
2022/03/17 07:08:55;;;;;;;;;;;;;;;6.37;64.76;102075.97;1739415;81;20143;-79
2022/03/17 07:11:21;;;;;;;;;;;;;;;6.51;64.59;102080.05;1740051;81;20604;-78
2022/03/17 07:13:47;;;;;;;;;;;;;;;6.57;64.35;102085.41;1742277;80;20103;-80
2022/03/17 07:16:13;;;;;;;;;;;;;;;6.59;64.34;102087.03;1745006;79;20190;-82
2022/03/17 07:18:39;;;;;;;;;;;;;;;6.65;64.27;102085.39;1744010;80;20987;-80
2022/03/17 07:21:07;;;;;;;;;;;;;;;6.70;64.30;102089.09;1724393;81;20125;-81
2022/03/17 07:23:33;;;;;;;;;;;;;;;6.75;64.30;102087.05;1717521;83;20105;-83
2022/03/17 07:25:58;;;;;;;;;;;;;;;6.88;63.97;102092.47;1721636;83;20427;-83
2022/03/17 07:28:26;;;;;;;;;;;;;;;6.99;63.70;102090.56;1721447;81;20113;-78
2022/03/17 07:30:51;;;;;;;;;;;;;;;6.95;63.78;102087.75;1720273;81;20971;-80
2022/03/17 07:33:17;;;;;;;;;;;;;;;6.97;63.69;102092.44;1720971;81;20128;-80
2022/03/17 07:35:44;;;;;;;;;;;;;;;7.10;63.45;102094.78;1714004;81;20500;-78
2022/03/17 07:38:09;;;;;;;;;;;;;;;7.17;63.22;102095.27;1720078;82;20613;-82
2022/03/17 07:40:35;;;;;;;;;;;;;;;7.17;63.33;102101.36;1717734;81;20149;-79
2022/03/17 07:43:00;;;;;;;;;;;;;;;7.17;63.30;102105.31;1717621;83;21061;-80
2022/03/17 07:45:26;;;;;;;;;;;;;;;7.34;63.13;102107.47;1721114;83;20112;-80
2022/03/17 07:47:52;;;;;;;;;;;;;;;7.49;62.67;102117.11;1712879;81;20251;-83
2022/03/17 07:50:18;;;;;;;;;;;;;;;7.47;62.62;102120.31;1717033;81;20690;-83
2022/03/17 07:52:44;;;;;;;;;;;;;;;7.64;62.37;102110.11;1717779;81;20295;-81
2022/03/17 07:55:09;;;;;;;;;;;;;;;7.72;62.10;102113.61;1717326;83;21173;-82
2022/03/17 07:57:36;;;;;;;;;;;;;;;7.84;61.85;102114.69;1713397;83;20472;-85
2022/03/17 08:00:03;;;;;;;;;;;;;;;7.96;61.33;102114.45;1714453;81;20184;-81
2022/03/17 08:02:28;;;;;;;;;;;;;;;8.04;60.91;102121.41;1719063;83;20177;-84
2022/03/17 08:04:55;;;;;;;;;;;;;;;8.14;60.77;102120.38;1718550;81;20738;-86
2022/03/17 08:07:20;;;;;;;;;;;;;;;8.29;60.84;102123.42;1709901;83;21187;-84
2022/03/17 08:09:46;;;;;;;;;;;;;;;8.14;60.75;102118.63;1718279;81;20429;-85
2022/03/17 08:12:12;;;;;;;;;;;;;;;8.20;60.37;102127.47;1715099;81;20159;-80
2022/03/17 08:14:37;;;;;;;;;;;;;;;8.29;60.32;102119.47;1718468;81;20509;-84
2022/03/17 08:17:03;;;;;;;;;;;;;;;8.36;60.25;102131.33;1716583;81;20167;-81
2022/03/17 08:19:31;;;;;;;;;;;;;;;8.36;60.08;102123.88;1716532;83;21228;-80
2022/03/17 08:21:57;;;;;;;;;;;;;;;8.43;59.64;102129.16;1718399;81;20141;-79
2022/03/17 08:24:23;;;;;;;;;;;;;;;8.52;59.61;102133.91;1712453;83;20098;-81
2022/03/17 08:26:48;;;;;;;;;;;;;;;8.46;59.45;102130.80;1708785;82;20640;-82
2022/03/17 08:29:16;;;;;;;;;;;;;;;8.65;59.28;102127.88;1708780;82;20239;-78
2022/03/17 08:31:42;;;;;;;;;;;;;;;8.63;58.91;102130.13;1709469;82;21859;-79
2022/03/17 08:34:07;;;;;;;;;;;;;;;8.83;58.60;102129.86;1710602;83;20119;-80
2022/03/17 08:36:33;;;;;;;;;;;;;;;8.89;58.46;102135.58;1712437;82;20160;-80
2022/03/17 08:38:58;;;;;;;;;;;;;;;8.90;57.97;102133.33;1713769;82;20147;-80
2022/03/17 08:41:27;;;;;;;;;;;;;;;8.97;57.95;102143.84;1713875;80;20209;-79
2022/03/17 08:43:56;;;;;;;;;;;;;;;8.96;57.77;102138.22;1684275;83;20173;-82
2022/03/17 08:49:24;;;;;;;;;;;;;;;8.97;56.98;102139.89;1706593;83;20148;-84
2022/03/17 08:51:52;;;;;;;;;;;;;;;8.88;57.04;102137.83;1713056;83;20209;-79
2022/03/17 08:54:20;;;;;;;;;;;;;;;8.92;56.97;102136.70;1710949;83;20153;-82
2022/03/17 08:56:46;;;;;;;;;;;;;;;9.11;56.51;102134.23;1710680;83;21171;-83
2022/03/17 08:59:11;;;;;;;;;;;;;;;9.22;56.30;102136.18;1709441;83;20194;-81
2022/03/17 09:01:37;;;;;;;;;;;;;;;9.31;56.25;102133.79;1710621;83;20270;-80
2022/03/17 09:04:07;;;;;;;;;;;;;;;9.37;56.18;102136.97;1705357;82;20111;-83
2022/03/17 09:06:35;;;;;;;;;;;;;;;9.32;55.78;102138.58;1706746;83;20139;-81
2022/03/17 09:09:05;;;;;;;;;;;;;;;9.51;55.81;102140.90;1712484;83;21209;-85
2022/03/17 09:11:34;;;;;;;;;;;;;;;9.49;54.98;102132.22;1713753;83;20113;-80
2022/03/17 09:14:01;;;;;;;;;;;;;;;9.50;54.62;102143.16;1709098;81;20121;-80
2022/03/17 09:16:28;;;;;;;;;;;;;;;9.56;54.35;102145.88;1706431;83;20558;-83
2022/03/17 09:18:54;;;;;;;;;;;;;;;9.67;54.09;102148.16;1686707;83;20134;-83
2022/03/17 09:21:21;;;;;;;;;;;;;;;9.91;53.82;102140.88;1708242;83;21162;-81
2022/03/17 09:23:51;;;;;;;;;;;;;;;10.04;53.66;102144.88;1703206;83;20139;-83
2022/03/17 09:26:16;;;;;;;;;;;;;;;10.10;53.11;102144.92;1694306;84;20191;-86
2022/03/17 09:28:43;;;;;;;;;;;;;;;10.11;53.19;102139.53;1683129;83;21136;-80
2022/03/17 09:31:09;;;;;;;;;;;;;;;10.28;53.13;102139.70;1692248;84;20219;-84
2022/03/17 09:33:35;;;;;;;;;;;;;;;10.35;52.47;102147.63;1696587;84;22000;-77
2022/03/17 09:36:01;;;;;;;;;;;;;;;10.27;52.46;102143.32;1700834;84;20199;-81
2022/03/17 09:38:26;;;;;;;;;;;;;;;10.40;52.06;102143.34;1685213;84;20430;-82
2022/03/17 09:40:52;;;;;;;;;;;;;;;10.41;51.69;102151.16;1701141;84;20147;-82
2022/03/17 09:43:28;;;;;;;;;;;;;;;10.51;52.08;102139.96;1686269;84;20147;-81
2022/03/17 09:45:55;;;;;;;;;;;;;;;10.69;51.64;102150.57;1691555;84;20126;-84
2022/03/17 09:48:23;;;;;;;;;;;;;;;10.62;51.30;102151.94;1706708;84;20128;-79
2022/03/17 09:50:54;;;;;;;;;;;;;;;10.73;50.88;102149.38;1691262;84;20195;-82
2022/03/17 09:53:19;;;;;;;;;;;;;;;10.87;51.05;102154.18;1695012;82;20156;-81
2022/03/17 09:55:45;;;;;;;;;;;;;;;11.00;50.88;102143.12;1684409;83;20186;-82
2022/03/17 09:58:10;;;;;;;;;;;;;;;10.96;50.23;102153.05;1699602;84;22459;-82
2022/03/17 10:00:47;;;;;;;;;;;;;;;11.03;50.21;102146.86;1681800;84;20186;-81
2022/03/17 10:03:16;;;;;;;;;;;;;;;11.13;49.91;102151.84;1686906;84;20176;-83
2022/03/17 10:05:45;;;;;;;;;;;;;;;11.08;49.66;102145.21;1693543;84;20177;-81
2022/03/17 10:08:13;;;;;;;;;;;;;;;11.17;49.44;102141.91;1694513;84;20161;-85
2022/03/17 10:10:40;;;;;;;;;;;;;;;11.10;49.40;102148.09;1700077;83;20832;-81
2022/03/17 10:13:16;;;;;;;;;;;;;;;11.17;48.88;102141.04;1768281;80;20187;-84
2022/03/17 10:15:44;;;;;;;;;;;;;;;11.28;48.55;102143.77;1768696;80;20524;-83
2022/03/17 10:18:24;;;;;;;;;;;;;;;11.34;48.03;102140.66;1755012;80;20224;-84
2022/03/17 10:21:24;;;;;;;;;;;;;;;11.42;47.88;102130.38;1764840;80;20120;-84
2022/03/17 10:23:51;;;;;;;;;;;;;;;11.29;48.58;102135.70;1761101;80;20112;-82
2022/03/17 10:26:46;;;;;;;;;;;;;;;11.46;48.24;102141.56;1758876;79;20220;-83
2022/03/17 10:29:30;;;;;;;;;;;;;;;11.53;48.10;102132.69;1724830;80;20522;-84
2022/03/17 10:32:05;;;;;;;;;;;;;;;11.51;47.54;102139.41;1760743;80;20127;-79
2022/03/17 10:34:53;;;;;;;;;;;;;;;11.79;47.28;102127.64;1757825;80;20187;-80
2022/03/17 10:37:25;;;;;;;;;;;;;;;11.78;46.83;102144.47;1758683;80;20158;-82
2022/03/17 10:39:57;;;;;;;;;;;;;;;11.95;46.60;102127.35;1755257;80;37528;-80
2022/03/17 10:42:30;;;;;;;;;;;;;;;11.95;46.25;102135.30;1759089;80;20122;-82
2022/03/17 10:45:03;;;;;;;;;;;;;;;12.09;45.62;102131.60;1761114;80;20658;-82
2022/03/17 10:47:36;;;;;;;;;;;;;;;11.98;45.27;102126.28;1757083;80;21119;-82
2022/03/17 10:50:15;;;;;;;;;;;;;;;11.97;45.20;102128.56;1749465;80;21166;-78
2022/03/17 10:52:50;;;;;;;;;;;;;;;12.08;45.00;102127.25;1753815;80;20210;-78
2022/03/17 10:55:18;;;;;;;;;;;;;;;12.20;44.84;102122.34;1759095;80;20207;-82
2022/03/17 10:57:44;;;;;;;;;;;;;;;12.33;44.54;102120.07;1727069;80;20215;-82
2022/03/17 11:00:27;;;;;;;;;;;;;;;12.48;44.50;102116.23;1759166;80;20990;-83
2022/03/17 11:02:57;;;;;;;;;;;;;;;12.54;44.27;102119.72;1752043;80;21990;-80
2022/03/17 11:05:23;;;;;;;;;;;;;;;12.53;44.12;102116.70;1754632;80;20178;-81
2022/03/17 11:07:49;;;;;;;;;;;;;;;12.55;43.69;102114.80;1756296;79;20555;-80
2022/03/17 11:10:19;;;;;;;;;;;;;;;12.29;43.40;102119.47;1751610;80;20584;-81
2022/03/17 11:12:45;;;;;;;;;;;;;;;12.31;43.01;102106.11;1756786;80;20173;-78
2022/03/17 11:15:13;;;;;;;;;;;;;;;12.24;43.27;102115.48;1751612;80;22047;-80
2022/03/17 11:17:50;;;;;;;;;;;;;;;12.39;43.54;102107.67;1758968;80;20524;-79
2022/03/17 11:20:24;;;;;;;;;;;;;;;12.67;43.37;102101.03;1761591;80;20121;-82
2022/03/17 11:23:10;;;;;;;;;;;;;;;12.59;43.52;102100.81;1724976;80;21274;-81
2022/03/17 11:25:36;;;;;;;;;;;;;;;12.79;43.27;102103.20;1757381;80;20511;-79
2022/03/17 11:28:05;;;;;;;;;;;;;;;12.66;43.52;102106.45;1765261;80;21181;-80
2022/03/17 11:30:45;;;;;;;;;;;;;;;12.50;43.38;102103.69;1745646;80;20148;-81
2022/03/17 11:33:25;;;;;;;;;;;;;;;12.59;43.32;102111.91;1755557;80;20161;-83
2022/03/17 11:35:59;;;;;;;;;;;;;;;12.77;43.01;102110.91;1752241;80;20122;-82
2022/03/17 11:38:28;;;;;;;;;;;;;;;12.88;42.54;102109.09;1743959;80;20169;-81
2022/03/17 11:41:23;;;;;;;;;;;;;;;12.95;42.27;102109.93;1758516;80;21214;-85
2022/03/17 11:43:56;;;;;;;;;;;;;;;12.58;41.67;102103.09;1768472;80;20155;-81
2022/03/17 11:46:25;;;;;;;;;;;;;;;12.62;41.75;102111.17;1761287;79;20525;-81
2022/03/17 11:48:57;;;;;;;;;;;;;;;12.88;41.14;102106.45;1753879;80;20191;-84
2022/03/17 11:51:26;;;;;;;;;;;;;;;12.81;41.10;102107.05;1755407;80;20216;-81
2022/03/17 11:54:06;;;;;;;;;;;;;;;12.92;40.56;102105.70;1765881;80;21137;-81
2022/03/17 11:56:47;;;;;;;;;;;;;;;12.93;40.27;102108.73;1757216;79;20128;-79
2022/03/17 11:59:22;;;;;;;;;;;;;;;13.05;40.34;102108.20;1722509;80;20148;-81
2022/03/17 12:01:49;;;;;;;;;;;;;;;13.18;39.93;102106.25;1760244;80;20476;-81
2022/03/17 12:04:24;;;;;;;;;;;;;;;13.24;39.65;102104.42;1760128;80;20132;-81
2022/03/17 12:06:53;;;;;;;;;;;;;;;13.50;39.43;102094.84;1754781;80;21189;-79
2022/03/17 12:09:31;;;;;;;;;;;;;;;13.55;39.17;102097.09;1756815;80;20494;-82
2022/03/17 12:11:56;;;;;;;;;;;;;;;13.51;39.02;102101.82;1748112;80;20126;-81
2022/03/17 12:14:25;;;;;;;;;;;;;;;13.45;39.02;102103.66;1728271;80;20189;-82
2022/03/17 12:17:12;;;;;;;;;;;;;;;13.55;38.63;102099.28;1757559;80;20145;-82
2022/03/17 12:19:38;;;;;;;;;;;;;;;13.42;38.53;102099.92;1713242;81;20745;-80
2022/03/17 12:22:15;;;;;;;;;;;;;;;13.46;38.28;102104.85;1759561;80;20307;-82
2022/03/17 12:24:52;;;;;;;;;;;;;;;13.67;38.41;102099.22;1757257;80;20152;-78
2022/03/17 12:27:20;;;;;;;;;;;;;;;13.92;38.02;102100.17;1742732;81;20135;-81
2022/03/17 12:29:49;;;;;;;;;;;;;;;13.91;38.02;102102.96;1742277;80;20562;-78
2022/03/17 12:32:18;;;;;;;;;;;;;;;13.90;37.73;102096.78;1740368;80;21116;-80
2022/03/17 12:34:45;;;;;;;;;;;;;;;13.93;37.99;102096.53;1741406;80;20792;-81
2022/03/17 12:37:11;;;;;;;;;;;;;;;13.81;38.15;102097.56;1744110;81;20194;-80
2022/03/17 12:39:37;;;;;;;;;;;;;;;13.89;37.91;102102.23;1745155;81;20422;-76
2022/03/17 12:42:09;;;;;;;;;;;;;;;14.03;37.55;102101.06;1736335;81;20176;-79
2022/03/17 12:44:36;;;;;;;;;;;;;;;14.14;37.76;102105.82;1733609;80;21990;-79
2022/03/17 12:47:02;;;;;;;;;;;;;;;14.23;37.24;102105.53;1729242;81;20205;-78
2022/03/17 12:49:29;;;;;;;;;;;;;;;14.43;37.26;102109.59;1738243;80;20153;-80
2022/03/17 12:51:58;;;;;;;;;;;;;;;14.26;36.48;102105.27;1720402;81;20210;-80
2022/03/17 12:54:24;;;;;;;;;;;;;;;14.27;37.12;102101.61;1733882;80;20230;-81
2022/03/17 12:56:52;;;;;;;;;;;;;;;14.32;37.05;102108.69;1744992;80;21078;-79
2022/03/17 12:59:19;;;;;;;;;;;;;;;14.49;37.29;102103.24;1706399;82;21129;-77